Time;durP1;ratioP1;P1;durP2;ratioP2;P2;SDS_P1;SDS_P2;PMS_P1;PMS_P2;Temp;Humidity;BMP_temperature;BMP_pressure;BME280_temperature;BME280_humidity;BME280_pressure;Samples;Min_cycle;Max_cycle;Signal;HPM_P1;HPM_P2
2021/08/06 00:01:32;;;;;;;14.88;13.25;;;15.70;99.90;;;;;;5076579;28;20725;-76
2021/08/06 00:04:00;;;;;;;14.32;13.05;;;15.70;99.90;;;;;;5073401;28;20046;-75
2021/08/06 00:06:32;;;;;;;14.02;12.70;;;15.70;99.90;;;;;;5061467;28;20044;-75
2021/08/06 00:08:58;;;;;;;14.77;13.38;;;15.70;99.90;;;;;;5069807;28;20036;-75
2021/08/06 00:11:30;;;;;;;15.40;13.80;;;15.70;99.90;;;;;;5045170;28;20051;-75
2021/08/06 00:13:57;;;;;;;15.00;13.55;;;15.60;99.90;;;;;;5078281;28;20453;-75
2021/08/06 00:16:23;;;;;;;15.45;13.85;;;15.60;99.90;;;;;;5074823;28;20047;-75
2021/08/06 00:18:50;;;;;;;15.40;13.85;;;15.60;99.90;;;;;;5071413;28;20092;-75
2021/08/06 00:21:17;;;;;;;15.57;14.05;;;15.60;99.90;;;;;;5056269;28;20032;-75
2021/08/06 00:23:46;;;;;;;16.30;14.63;;;15.50;99.90;;;;;;5056278;28;20117;-75
2021/08/06 00:26:13;;;;;;;14.82;13.32;;;15.50;99.90;;;;;;5065010;28;20182;-75
2021/08/06 00:28:40;;;;;;;16.27;14.63;;;15.40;99.90;;;;;;5054720;28;20044;-75
2021/08/06 00:31:06;;;;;;;16.25;14.70;;;15.40;99.90;;;;;;5074251;28;20040;-75
2021/08/06 00:33:32;;;;;;;16.60;15.00;;;15.40;99.90;;;;;;5069256;28;20452;-75
2021/08/06 00:35:59;;;;;;;16.13;14.57;;;15.40;99.90;;;;;;5078723;28;20176;-74
2021/08/06 00:38:27;;;;;;;17.95;16.08;;;15.30;99.90;;;;;;5075366;28;20052;-75
2021/08/06 00:40:53;;;;;;;15.27;13.77;;;15.30;99.90;;;;;;5074647;28;20040;-74
2021/08/06 00:43:20;;;;;;;15.85;14.25;;;15.30;99.90;;;;;;5077613;28;20151;-75
2021/08/06 00:45:46;;;;;;;16.05;14.63;;;15.30;99.90;;;;;;5078101;28;20044;-75
2021/08/06 00:48:13;;;;;;;17.23;14.43;;;15.30;99.90;;;;;;5051886;28;20476;-75
2021/08/06 00:50:42;;;;;;;16.50;14.88;;;15.30;99.90;;;;;;5076597;28;20044;-75
2021/08/06 00:53:10;;;;;;;16.63;14.93;;;15.30;99.90;;;;;;5078949;28;20035;-73
2021/08/06 00:55:37;;;;;;;15.68;14.10;;;15.30;99.90;;;;;;5069897;28;20045;-74
2021/08/06 00:58:03;;;;;;;16.02;14.32;;;15.20;99.90;;;;;;5082904;28;20040;-74
2021/08/06 01:00:29;;;;;;;16.33;14.65;;;15.20;99.90;;;;;;5074250;28;20470;-73
2021/08/06 01:03:02;;;;;;;16.80;15.10;;;15.20;99.90;;;;;;5078600;28;20052;-73
2021/08/06 01:05:35;;;;;;;15.95;14.45;;;15.20;99.90;;;;;;5063645;28;20113;-73
2021/08/06 01:08:19;;;;;;;17.17;15.48;;;15.20;99.90;;;;;;5071153;28;20141;-73
2021/08/06 01:10:47;;;;;;;16.92;15.30;;;15.30;99.90;;;;;;5073836;28;20048;-74
2021/08/06 01:13:40;;;;;;;17.48;15.77;;;15.30;99.90;;;;;;5078527;28;20123;-73
2021/08/06 01:16:08;;;;;;;16.65;14.98;;;15.20;99.90;;;;;;5072517;28;20044;-74
2021/08/06 01:18:36;;;;;;;16.95;15.18;;;15.20;99.90;;;;;;5043083;28;20032;-73
2021/08/06 01:21:12;;;;;;;16.83;15.32;;;15.20;99.90;;;;;;5076983;28;20471;-73
2021/08/06 01:23:40;;;;;;;16.83;15.10;;;15.20;99.90;;;;;;5053567;28;20087;-73
2021/08/06 01:26:17;;;;;;;17.40;15.73;;;15.30;99.90;;;;;;5068187;28;20098;-74
2021/08/06 01:28:47;;;;;;;18.30;16.45;;;15.20;99.90;;;;;;5072616;28;20051;-73
2021/08/06 01:31:14;;;;;;;17.60;15.90;;;15.20;99.90;;;;;;5073587;28;20029;-74
2021/08/06 01:33:45;;;;;;;17.50;15.75;;;15.20;99.90;;;;;;5074545;28;20047;-74
2021/08/06 01:36:11;;;;;;;17.73;16.05;;;15.20;99.90;;;;;;5058740;28;20040;-73
2021/08/06 01:38:37;;;;;;;17.10;15.50;;;15.20;99.90;;;;;;5070372;28;20139;-73
2021/08/06 01:41:12;;;;;;;19.45;17.55;;;15.20;99.90;;;;;;5078276;28;20127;-74
2021/08/06 01:43:50;;;;;;;16.50;14.82;;;15.20;99.90;;;;;;5072422;28;20041;-74
2021/08/06 01:46:33;;;;;;;18.20;16.30;;;15.20;99.90;;;;;;5069222;28;20036;-72
2021/08/06 01:49:16;;;;;;;16.95;15.18;;;15.20;99.90;;;;;;5068784;28;20067;-73
2021/08/06 01:51:44;;;;;;;19.77;15.65;;;15.20;99.90;;;;;;5072827;28;20048;-73
2021/08/06 01:54:12;;;;;;;17.83;16.13;;;15.20;99.90;;;;;;5051772;28;20420;-74
2021/08/06 01:56:41;;;;;;;16.90;15.30;;;15.30;99.90;;;;;;5081863;28;20044;-74
2021/08/06 01:59:10;;;;;;;18.23;16.42;;;15.20;99.90;;;;;;5082583;28;20039;-74
2021/08/06 02:01:38;;;;;;;17.17;15.57;;;15.30;99.90;;;;;;5075312;28;20036;-74
2021/08/06 02:04:05;;;;;;;17.67;15.98;;;15.30;99.90;;;;;;5079128;28;20032;-74
2021/08/06 02:06:32;;;;;;;16.70;15.10;;;15.30;99.90;;;;;;5075128;28;20123;-74
2021/08/06 02:08:58;;;;;;;17.02;15.25;;;15.30;99.90;;;;;;5068444;28;20140;-74
2021/08/06 02:11:24;;;;;;;18.30;16.45;;;15.30;99.90;;;;;;5078130;28;20169;-74
2021/08/06 02:13:51;;;;;;;16.33;14.82;;;15.30;99.90;;;;;;5061335;28;20115;-74
2021/08/06 02:16:18;;;;;;;17.40;15.70;;;15.30;99.90;;;;;;5069247;28;20096;-72
2021/08/06 02:18:56;;;;;;;17.48;15.88;;;15.40;99.90;;;;;;5076832;28;20035;-73
2021/08/06 02:21:30;;;;;;;18.98;14.93;;;15.40;99.90;;;;;;5073363;28;20406;-74
2021/08/06 02:24:02;;;;;;;17.33;15.52;;;15.40;99.90;;;;;;5078289;28;20051;-74
2021/08/06 02:26:33;;;;;;;16.00;14.48;;;15.40;99.90;;;;;;5080026;28;20584;-74
2021/08/06 02:29:03;;;;;;;16.25;14.65;;;15.40;99.90;;;;;;5068135;28;20111;-74
2021/08/06 02:31:32;;;;;;;16.25;14.70;;;15.40;99.90;;;;;;5082217;28;20428;-73
2021/08/06 02:33:59;;;;;;;17.25;15.48;;;15.40;99.90;;;;;;5071026;28;20046;-74
2021/08/06 02:36:25;;;;;;;16.77;15.10;;;15.50;99.90;;;;;;5076122;28;20044;-73
2021/08/06 02:38:58;;;;;;;16.77;15.18;;;15.40;99.90;;;;;;5053730;28;20032;-73
2021/08/06 02:41:25;;;;;;;17.27;15.57;;;15.50;99.90;;;;;;5076609;28;20036;-74
2021/08/06 02:43:51;;;;;;;16.85;15.10;;;15.50;99.90;;;;;;5079410;28;20047;-74
2021/08/06 02:46:18;;;;;;;17.08;15.27;;;15.50;99.90;;;;;;5075699;28;20546;-74
2021/08/06 02:48:44;;;;;;;18.20;15.45;;;15.50;99.90;;;;;;5073522;28;20047;-74
2021/08/06 02:51:10;;;;;;;16.83;14.98;;;15.40;99.90;;;;;;5068475;28;20479;-74
2021/08/06 02:53:36;;;;;;;17.13;15.43;;;15.50;99.90;;;;;;5067010;28;20482;-75
2021/08/06 02:56:02;;;;;;;16.88;15.13;;;15.50;99.90;;;;;;5049934;28;20514;-74
2021/08/06 02:58:28;;;;;;;15.55;13.80;;;15.50;99.90;;;;;;5067131;28;20036;-75
2021/08/06 03:00:55;;;;;;;17.05;15.35;;;15.50;99.90;;;;;;5064246;28;20036;-77
2021/08/06 03:03:20;;;;;;;17.80;16.10;;;15.60;99.90;;;;;;5065956;28;20036;-76
2021/08/06 03:05:46;;;;;;;15.85;14.38;;;15.60;99.90;;;;;;5051582;28;20522;-73
2021/08/06 03:08:16;;;;;;;16.98;15.38;;;15.60;99.90;;;;;;5082186;28;20040;-76
2021/08/06 03:10:41;;;;;;;19.27;17.48;;;15.60;99.90;;;;;;5069031;28;20511;-76
2021/08/06 03:13:07;;;;;;;16.67;15.05;;;15.70;99.90;;;;;;5055257;28;20086;-75
2021/08/06 03:15:33;;;;;;;16.88;15.10;;;15.60;99.90;;;;;;5081790;28;20056;-75
2021/08/06 03:17:59;;;;;;;19.00;17.05;;;15.70;99.90;;;;;;5080190;28;20047;-75
2021/08/06 03:20:25;;;;;;;20.10;16.90;;;15.70;99.90;;;;;;5079374;28;20548;-77
2021/08/06 03:22:52;;;;;;;19.02;17.23;;;15.60;99.90;;;;;;5069681;28;20506;-74
2021/08/06 03:25:18;;;;;;;18.83;16.77;;;15.70;99.90;;;;;;5084108;28;20044;-74
2021/08/06 03:27:44;;;;;;;17.98;16.08;;;15.70;99.90;;;;;;5081988;28;20101;-73
2021/08/06 03:30:14;;;;;;;16.60;15.00;;;15.70;99.90;;;;;;5084666;28;20175;-72
2021/08/06 03:32:41;;;;;;;17.97;16.27;;;15.70;99.90;;;;;;5075065;28;20051;-72
2021/08/06 03:35:08;;;;;;;17.98;16.08;;;15.70;99.90;;;;;;5080512;28;20048;-73
2021/08/06 03:37:34;;;;;;;17.48;15.73;;;15.70;99.90;;;;;;5078719;28;20075;-74
2021/08/06 03:40:00;;;;;;;17.30;15.60;;;15.70;99.90;;;;;;5067258;28;20052;-75
2021/08/06 03:42:29;;;;;;;18.40;16.60;;;15.70;99.90;;;;;;5081368;28;20040;-72
2021/08/06 03:44:55;;;;;;;19.38;17.25;;;15.70;99.90;;;;;;5078883;28;20151;-73
2021/08/06 03:47:21;;;;;;;18.48;16.58;;;15.70;99.90;;;;;;5082083;28;20045;-73
2021/08/06 03:49:47;;;;;;;16.98;15.27;;;15.80;99.90;;;;;;5053898;28;20044;-72
2021/08/06 03:52:13;;;;;;;19.00;17.08;;;15.80;99.90;;;;;;5081440;28;20494;-73
2021/08/06 03:54:39;;;;;;;19.73;17.63;;;15.80;99.90;;;;;;5075230;28;20047;-73
2021/08/06 03:57:06;;;;;;;17.90;16.05;;;15.80;99.90;;;;;;5073463;28;20040;-73
2021/08/06 03:59:32;;;;;;;18.83;16.50;;;15.80;99.90;;;;;;5081283;28;20049;-73
2021/08/06 04:01:58;;;;;;;18.90;16.90;;;15.80;99.90;;;;;;5068290;28;20056;-75
2021/08/06 04:04:33;;;;;;;18.15;16.27;;;15.80;99.90;;;;;;5079609;28;20048;-75
2021/08/06 04:06:59;;;;;;;19.73;16.92;;;15.80;99.90;;;;;;5074790;28;20598;-76
2021/08/06 04:09:25;;;;;;;18.42;16.63;;;15.90;99.90;;;;;;5083169;28;20270;-74
2021/08/06 04:11:51;;;;;;;18.27;16.45;;;15.90;99.90;;;;;;5086756;28;20437;-75
2021/08/06 04:14:17;;;;;;;17.88;16.08;;;15.90;99.90;;;;;;5060666;28;20044;-74
2021/08/06 04:16:43;;;;;;;17.48;15.73;;;15.90;99.90;;;;;;5067038;28;20519;-74
2021/08/06 04:19:09;;;;;;;18.63;16.73;;;15.90;99.90;;;;;;5064400;28;20567;-73
2021/08/06 04:21:35;;;;;;;18.55;15.85;;;15.90;99.90;;;;;;5076436;28;20258;-74
2021/08/06 04:24:01;;;;;;;19.17;17.20;;;15.90;99.90;;;;;;5073647;28;20575;-74
2021/08/06 04:26:40;;;;;;;17.63;15.70;;;15.90;99.90;;;;;;5087732;28;20066;-72
2021/08/06 04:29:07;;;;;;;17.98;15.57;;;16.00;99.90;;;;;;5082077;28;20526;-72
2021/08/06 04:31:34;;;;;;;17.75;15.00;;;16.00;99.90;;;;;;5055620;28;20063;-72
2021/08/06 04:34:00;;;;;;;17.05;15.18;;;16.00;99.90;;;;;;5089833;28;20644;-73
2021/08/06 04:36:26;;;;;;;16.80;15.10;;;16.10;99.90;;;;;;5087120;28;20118;-73
2021/08/06 04:38:52;;;;;;;16.60;14.90;;;16.10;99.90;;;;;;5086672;28;20118;-72
2021/08/06 04:41:18;;;;;;;18.00;16.20;;;16.10;99.90;;;;;;5081044;28;20044;-73
2021/08/06 04:43:44;;;;;;;16.50;14.80;;;16.10;99.90;;;;;;5071431;28;20039;-73
2021/08/06 04:46:10;;;;;;;16.80;15.00;;;16.20;99.90;;;;;;5075566;28;20047;-73
2021/08/06 04:48:36;;;;;;;16.65;14.88;;;16.10;99.90;;;;;;5081225;28;20415;-73
2021/08/06 04:51:02;;;;;;;15.55;14.05;;;16.20;99.90;;;;;;5073404;28;20478;-73
2021/08/06 04:53:28;;;;;;;16.83;14.80;;;16.20;99.90;;;;;;5069354;28;20548;-73
2021/08/06 04:55:54;;;;;;;16.35;14.68;;;16.20;99.90;;;;;;5059497;28;20045;-74
2021/08/06 04:58:20;;;;;;;17.33;15.52;;;16.20;99.90;;;;;;5079318;28;20040;-73
2021/08/06 05:00:46;;;;;;;16.58;14.95;;;16.20;99.90;;;;;;5074378;28;20040;-73
2021/08/06 05:03:12;;;;;;;16.10;14.40;;;16.20;99.90;;;;;;5082433;28;20479;-74
2021/08/06 05:05:38;;;;;;;15.38;13.77;;;16.20;99.90;;;;;;5070638;28;20051;-74
2021/08/06 05:08:04;;;;;;;15.23;13.68;;;16.20;99.90;;;;;;5063689;28;20076;-74
2021/08/06 05:10:31;;;;;;;15.85;14.20;;;16.20;99.90;;;;;;5066999;28;20032;-73
2021/08/06 05:12:56;;;;;;;14.98;13.23;;;16.30;99.90;;;;;;5077458;28;20028;-73
2021/08/06 05:15:22;;;;;;;15.45;13.85;;;16.30;99.90;;;;;;5059159;28;20380;-75
2021/08/06 05:17:49;;;;;;;15.23;13.63;;;16.30;99.90;;;;;;5079160;28;20052;-75
2021/08/06 05:20:16;;;;;;;17.45;14.18;;;16.30;99.90;;;;;;5078393;28;20078;-75
2021/08/06 05:22:42;;;;;;;16.08;14.20;;;16.30;99.90;;;;;;5074350;28;20449;-75
2021/08/06 05:25:09;;;;;;;15.20;13.23;;;16.40;99.90;;;;;;5080700;28;20037;-75
2021/08/06 05:27:35;;;;;;;14.75;12.95;;;16.40;99.90;;;;;;5076864;28;20060;-76
2021/08/06 05:30:01;;;;;;;16.52;13.18;;;16.50;99.90;;;;;;5063537;28;20446;-74
2021/08/06 05:32:28;;;;;;;13.15;11.82;;;16.50;99.90;;;;;;5080878;28;20498;-73
2021/08/06 05:34:56;;;;;;;13.50;12.10;;;16.60;99.90;;;;;;5086373;28;20068;-74
2021/08/06 05:37:22;;;;;;;14.50;12.05;;;16.70;99.90;;;;;;5070955;28;20040;-72
2021/08/06 05:39:48;;;;;;;14.60;12.45;;;16.80;99.90;;;;;;5058273;28;20479;-74
2021/08/06 05:42:14;;;;;;;14.50;13.00;;;16.90;99.90;;;;;;5076945;28;20036;-75
2021/08/06 05:44:41;;;;;;;12.93;10.88;;;17.00;99.90;;;;;;5078982;28;20060;-74
2021/08/06 05:47:07;;;;;;;13.30;11.80;;;17.10;99.90;;;;;;5070008;28;20055;-75
2021/08/06 05:49:33;;;;;;;27.13;12.98;;;17.10;99.90;;;;;;5072090;28;20071;-74
2021/08/06 05:51:59;;;;;;;14.07;12.35;;;17.20;99.90;;;;;;5071894;28;20067;-75
2021/08/06 05:54:25;;;;;;;14.60;11.52;;;17.30;99.90;;;;;;5067232;28;20047;-75
2021/08/06 05:56:51;;;;;;;14.23;10.60;;;17.30;99.90;;;;;;5050941;28;20044;-74
2021/08/06 05:59:17;;;;;;;12.68;11.38;;;17.30;99.90;;;;;;5072190;28;20040;-73
2021/08/06 06:01:43;;;;;;;12.70;10.48;;;17.30;99.90;;;;;;5081995;28;20036;-73
2021/08/06 06:04:11;;;;;;;11.30;10.15;;;17.30;99.90;;;;;;5078972;28;20491;-72
2021/08/06 06:06:37;;;;;;;12.30;10.60;;;17.30;99.90;;;;;;5071275;28;20119;-73
2021/08/06 06:09:03;;;;;;;11.60;10.35;;;17.30;99.90;;;;;;5074029;28;20138;-72
2021/08/06 06:11:30;;;;;;;11.95;10.40;;;17.30;99.90;;;;;;5066797;28;20111;-73
2021/08/06 06:14:00;;;;;;;13.45;10.75;;;17.30;99.90;;;;;;5058120;28;20127;-73
2021/08/06 06:16:30;;;;;;;11.93;10.73;;;17.30;99.90;;;;;;5079720;28;20070;-74
2021/08/06 06:18:56;;;;;;;12.10;10.90;;;17.30;99.90;;;;;;5074062;28;20028;-73
2021/08/06 06:21:25;;;;;;;12.50;11.20;;;17.30;99.90;;;;;;5073823;28;20487;-73
2021/08/06 06:23:51;;;;;;;12.57;10.68;;;17.30;99.90;;;;;;5076297;28;20073;-74
2021/08/06 06:26:17;;;;;;;11.80;10.35;;;17.40;99.90;;;;;;5059461;28;20522;-74
2021/08/06 06:28:43;;;;;;;13.02;11.02;;;17.40;99.90;;;;;;5059647;28;20040;-74
2021/08/06 06:31:09;;;;;;;11.98;10.73;;;17.40;99.90;;;;;;5077252;28;20042;-74
2021/08/06 06:33:36;;;;;;;13.95;9.82;;;17.50;99.90;;;;;;5073276;28;20048;-75
2021/08/06 06:36:02;;;;;;;11.90;10.35;;;17.50;99.90;;;;;;5071189;28;20078;-73
2021/08/06 06:38:28;;;;;;;12.15;10.25;;;17.50;99.90;;;;;;5072181;28;22190;-74
2021/08/06 06:40:54;;;;;;;11.95;10.02;;;17.50;99.90;;;;;;5074898;28;20043;-74
2021/08/06 06:43:20;;;;;;;12.70;11.40;;;17.50;99.90;;;;;;5067003;28;20036;-73
2021/08/06 06:45:45;;;;;;;13.70;11.85;;;17.50;99.90;;;;;;5075295;28;20341;-74
2021/08/06 06:48:11;;;;;;;12.23;10.93;;;17.50;99.90;;;;;;5068147;28;20041;-73
2021/08/06 06:50:37;;;;;;;14.68;11.35;;;17.50;99.90;;;;;;5068341;28;20049;-73
2021/08/06 06:53:03;;;;;;;11.35;10.15;;;17.50;99.90;;;;;;5073719;28;20086;-74
2021/08/06 06:55:29;;;;;;;15.05;11.30;;;17.40;99.90;;;;;;5064716;28;20040;-76
2021/08/06 06:57:56;;;;;;;13.95;11.40;;;17.40;99.90;;;;;;5051451;28;20082;-74
2021/08/06 07:00:28;;;;;;;12.63;11.35;;;17.30;99.90;;;;;;5058281;28;20060;-76
2021/08/06 07:02:55;;;;;;;13.07;11.10;;;17.30;99.90;;;;;;5071033;28;20037;-74
2021/08/06 07:05:21;;;;;;;12.40;11.10;;;17.30;99.90;;;;;;5067584;28;20487;-74
2021/08/06 07:07:48;;;;;;;11.88;10.52;;;17.30;99.90;;;;;;5071147;28;20040;-76
2021/08/06 07:10:14;;;;;;;12.65;11.00;;;17.20;99.90;;;;;;5074867;28;20040;-74
2021/08/06 07:12:41;;;;;;;11.65;10.43;;;17.20;99.90;;;;;;5053107;28;20131;-75
2021/08/06 07:15:12;;;;;;;13.88;12.20;;;17.30;99.90;;;;;;5058638;28;20689;-76
2021/08/06 07:17:39;;;;;;;12.45;9.63;;;17.30;99.90;;;;;;5060396;28;20127;-75
2021/08/06 07:20:10;;;;;;;10.77;9.60;;;17.40;99.90;;;;;;5070764;28;20040;-75
2021/08/06 07:22:36;;;;;;;11.32;9.38;;;17.50;99.90;;;;;;5057405;28;20426;-75
2021/08/06 07:25:04;;;;;;;13.07;10.65;;;17.60;99.90;;;;;;5071593;28;20394;-75
2021/08/06 07:27:30;;;;;;;12.98;10.50;;;17.60;99.90;;;;;;5073056;28;20506;-75
2021/08/06 07:29:56;;;;;;;9.93;8.88;;;17.70;99.90;;;;;;5072462;28;20047;-76
2021/08/06 07:32:22;;;;;;;11.55;9.77;;;17.80;99.90;;;;;;5070613;28;20090;-76
2021/08/06 07:34:48;;;;;;;10.05;8.75;;;17.90;99.90;;;;;;5074819;28;20032;-76
2021/08/06 07:37:14;;;;;;;10.93;9.68;;;17.90;99.90;;;;;;5053770;28;20510;-75
2021/08/06 07:39:41;;;;;;;10.40;9.13;;;17.90;99.90;;;;;;5069022;28;20513;-74
2021/08/06 07:42:10;;;;;;;10.93;9.10;;;17.90;99.90;;;;;;5057226;28;20106;-74
2021/08/06 07:44:36;;;;;;;10.30;8.90;;;17.90;99.90;;;;;;5065882;28;20559;-75
2021/08/06 07:47:07;;;;;;;10.07;8.85;;;18.00;99.90;;;;;;5062960;28;20115;-75
2021/08/06 07:49:34;;;;;;;10.38;8.82;;;18.00;99.90;;;;;;5074190;28;20054;-74
2021/08/06 07:52:03;;;;;;;11.02;9.77;;;18.00;99.90;;;;;;5076019;28;20041;-74
2021/08/06 07:54:29;;;;;;;11.05;9.48;;;17.90;99.90;;;;;;5060664;28;20491;-74
2021/08/06 07:56:55;;;;;;;10.93;9.30;;;17.90;99.90;;;;;;5052661;28;20055;-74
2021/08/06 07:59:21;;;;;;;12.13;9.75;;;17.90;99.90;;;;;;5057584;28;20040;-74
2021/08/06 08:01:47;;;;;;;12.27;10.50;;;17.90;99.90;;;;;;5077745;28;20036;-76
2021/08/06 08:04:13;;;;;;;11.25;8.82;;;17.90;99.90;;;;;;5072940;28;20044;-78
2021/08/06 08:06:39;;;;;;;13.40;11.15;;;17.90;99.90;;;;;;5059715;28;20044;-77
2021/08/06 08:09:05;;;;;;;14.10;11.80;;;17.90;99.90;;;;;;5078108;28;20047;-75
2021/08/06 08:11:31;;;;;;;13.48;12.07;;;17.80;99.90;;;;;;5075798;28;20093;-77
2021/08/06 08:13:57;;;;;;;14.52;12.35;;;17.80;99.90;;;;;;5050434;28;20648;-76
2021/08/06 08:16:23;;;;;;;16.42;11.43;;;17.80;99.90;;;;;;5071380;28;20438;-74
2021/08/06 08:18:50;;;;;;;11.32;10.10;;;17.80;99.90;;;;;;5080301;28;20551;-75
2021/08/06 08:21:16;;;;;;;11.13;9.93;;;17.70;99.90;;;;;;5082904;28;20125;-76
2021/08/06 08:23:42;;;;;;;12.30;10.63;;;17.70;99.90;;;;;;5077596;28;20040;-75
2021/08/06 08:26:11;;;;;;;11.40;10.27;;;17.70;99.90;;;;;;5074824;28;20070;-75
2021/08/06 08:28:37;;;;;;;13.98;11.07;;;17.70;99.90;;;;;;5056887;28;20131;-74
2021/08/06 08:31:03;;;;;;;12.82;11.50;;;17.70;99.90;;;;;;5075902;28;20138;-74
2021/08/06 08:33:33;;;;;;;11.20;10.00;;;17.70;99.90;;;;;;5076450;28;20509;-75
2021/08/06 08:35:59;;;;;;;10.73;9.18;;;17.60;99.90;;;;;;5076898;28;20512;-75
2021/08/06 08:38:25;;;;;;;9.73;8.73;;;17.70;99.90;;;;;;5053672;28;20071;-74
2021/08/06 08:40:54;;;;;;;10.05;9.02;;;17.60;99.90;;;;;;5080652;28;20052;-75
2021/08/06 08:43:20;;;;;;;10.80;9.80;;;17.60;99.90;;;;;;5074799;28;20044;-75
2021/08/06 08:45:47;;;;;;;12.30;9.57;;;17.60;99.90;;;;;;5073383;28;20062;-78
2021/08/06 08:48:14;;;;;;;10.40;9.25;;;17.60;99.90;;;;;;5092321;28;20048;-77
2021/08/06 08:50:41;;;;;;;10.70;9.60;;;17.60;99.90;;;;;;5057772;28;20044;-75
2021/08/06 08:53:08;;;;;;;10.45;9.40;;;17.60;99.90;;;;;;5056723;28;20036;-75
2021/08/06 08:55:37;;;;;;;12.70;10.10;;;17.60;99.90;;;;;;5036768;28;20056;-74
2021/08/06 08:58:04;;;;;;;13.05;11.70;;;17.70;99.90;;;;;;5071723;28;20040;-75
2021/08/06 09:00:30;;;;;;;13.93;12.65;;;17.90;99.90;;;;;;5056896;28;20075;-75
2021/08/06 09:02:55;;;;;;;12.98;11.68;;;18.00;99.90;;;;;;5073391;28;20064;-75
2021/08/06 09:05:26;;;;;;;10.82;9.75;;;18.30;99.90;;;;;;5072594;28;20468;-74
2021/08/06 09:07:52;;;;;;;11.70;10.60;;;18.50;99.90;;;;;;5069407;28;20402;-75
2021/08/06 09:10:20;;;;;;;10.68;9.68;;;18.60;99.90;;;;;;5074363;28;20045;-77
2021/08/06 09:12:59;;;;;;;11.88;10.68;;;18.70;99.90;;;;;;5078093;28;20055;-76
2021/08/06 09:15:54;;;;;;;8.63;7.82;;;18.70;99.90;;;;;;5073690;28;20101;-76
2021/08/06 09:18:23;;;;;;;9.60;8.70;;;18.70;99.90;;;;;;5072159;28;20041;-76
2021/08/06 09:21:00;;;;;;;6.82;6.18;;;18.70;99.90;;;;;;5077503;28;20044;-76
2021/08/06 09:23:52;;;;;;;8.25;7.05;;;18.80;99.90;;;;;;5074911;28;20503;-76
2021/08/06 09:26:31;;;;;;;7.70;6.50;;;18.80;99.90;;;;;;5072650;28;20048;-76
2021/08/06 09:29:09;;;;;;;6.57;5.97;;;18.80;99.90;;;;;;5078039;28;20036;-76
2021/08/06 09:31:41;;;;;;;6.80;6.10;;;18.80;99.90;;;;;;5067709;28;20037;-75
2021/08/06 09:34:12;;;;;;;4.95;4.45;;;18.80;99.90;;;;;;5070332;28;20029;-76
2021/08/06 09:36:51;;;;;;;6.22;5.43;;;19.00;99.90;;;;;;5071461;28;20048;-75
2021/08/06 09:39:18;;;;;;;5.72;4.72;;;19.10;99.90;;;;;;5074823;28;20042;-76
2021/08/06 09:41:46;;;;;;;5.07;4.57;;;19.10;99.90;;;;;;5077648;28;20044;-75
2021/08/06 09:44:27;;;;;;;5.35;4.30;;;19.40;99.90;;;;;;5073465;28;20116;-77
2021/08/06 09:46:53;;;;;;;4.75;3.13;;;19.50;99.90;;;;;;5072214;28;20048;-75
2021/08/06 09:49:20;;;;;;;4.65;3.90;;;19.70;99.90;;;;;;5054439;28;20048;-76
2021/08/06 09:51:54;;;;;;;4.10;3.40;;;19.60;99.90;;;;;;5067183;28;20530;-75
2021/08/06 09:54:28;;;;;;;4.70;4.20;;;19.80;99.90;;;;;;5072793;28;20085;-76
2021/08/06 09:57:26;;;;;;;4.07;3.03;;;20.00;99.90;;;;;;5079124;28;20101;-76
2021/08/06 09:59:56;;;;;;;4.65;3.58;;;20.10;99.90;;;;;;5067753;28;20146;-76
2021/08/06 10:02:31;;;;;;;6.05;4.53;;;20.20;99.90;;;;;;5088792;28;20478;-76
2021/08/06 10:05:03;;;;;;;4.70;3.42;;;20.40;99.90;;;;;;5072708;28;20554;-75
2021/08/06 10:07:31;;;;;;;4.40;3.55;;;20.50;99.90;;;;;;5077428;28;20083;-73
2021/08/06 10:09:57;;;;;;;5.53;3.70;;;20.50;99.90;;;;;;5077660;28;20035;-74
2021/08/06 10:12:24;;;;;;;4.40;3.20;;;20.40;99.90;;;;;;5076655;28;20501;-75
2021/08/06 10:14:50;;;;;;;5.60;4.03;;;20.40;99.90;;;;;;5082523;28;20486;-76
2021/08/06 10:17:16;;;;;;;4.05;3.58;;;20.30;99.90;;;;;;5076580;28;20055;-75
2021/08/06 10:19:42;;;;;;;5.22;3.70;;;20.30;99.90;;;;;;5074806;28;20032;-74
2021/08/06 10:22:09;;;;;;;5.32;3.50;;;20.30;99.90;;;;;;5071879;28;20394;-74
2021/08/06 10:24:37;;;;;;;5.85;4.25;;;20.50;99.90;;;;;;5077452;28;20052;-74
2021/08/06 10:27:03;;;;;;;4.43;3.13;;;20.70;99.90;;;;;;5070998;28;20048;-74
2021/08/06 10:29:29;;;;;;;6.90;6.20;;;21.00;99.90;;;;;;5060964;28;20041;-74
2021/08/06 10:32:15;;;;;;;4.30;3.55;;;21.10;99.90;;;;;;5073942;28;20039;-74
2021/08/06 10:35:17;;;;;;;5.25;3.85;;;21.10;98.40;;;;;;5068654;28;20549;-73
2021/08/06 10:37:54;;;;;;;4.60;3.40;;;20.90;99.00;;;;;;5070489;28;20054;-73
2021/08/06 10:40:32;;;;;;;6.22;3.83;;;20.80;99.10;;;;;;5068273;28;20060;-72
2021/08/06 10:43:11;;;;;;;5.65;3.80;;;20.90;98.60;;;;;;5075931;28;20189;-75
2021/08/06 10:45:46;;;;;;;5.82;4.18;;;21.00;98.10;;;;;;5057476;28;20064;-73
2021/08/06 10:48:45;;;;;;;4.85;3.80;;;21.10;98.40;;;;;;5074046;28;20040;-74
2021/08/06 10:51:21;;;;;;;4.88;3.75;;;21.30;97.90;;;;;;5078752;28;20063;-75
2021/08/06 10:53:49;;;;;;;7.07;5.47;;;21.50;97.50;;;;;;5079881;28;20383;-74
2021/08/06 10:56:28;;;;;;;10.95;5.03;;;21.60;97.40;;;;;;5074756;28;20670;-74
2021/08/06 10:58:55;;;;;;;8.07;5.35;;;21.60;96.60;;;;;;5077422;28;20032;-75
2021/08/06 11:01:28;;;;;;;5.88;5.28;;;21.70;96.80;;;;;;5071493;28;20473;-74
2021/08/06 11:03:57;;;;;;;6.40;5.72;;;21.70;96.00;;;;;;5075577;28;20135;-75
2021/08/06 11:06:47;;;;;;;7.13;5.53;;;21.60;95.30;;;;;;5065350;28;20509;-74
2021/08/06 11:09:25;;;;;;;6.28;5.65;;;21.40;95.60;;;;;;5066785;28;20036;-75
2021/08/06 11:12:05;;;;;;;6.40;5.53;;;21.30;95.50;;;;;;5087072;28;20029;-72
2021/08/06 11:14:37;;;;;;;7.35;5.70;;;21.20;96.10;;;;;;5072213;28;20497;-73
2021/08/06 11:17:16;;;;;;;6.32;5.20;;;21.10;96.70;;;;;;5067520;28;20041;-72
2021/08/06 11:19:47;;;;;;;5.22;4.50;;;21.20;96.70;;;;;;5067937;28;20040;-74
2021/08/06 11:22:27;;;;;;;7.57;4.97;;;21.10;96.30;;;;;;5078336;28;20059;-74
2021/08/06 11:25:03;;;;;;;9.50;5.78;;;21.00;96.30;;;;;;5075066;28;20033;-74
2021/08/06 11:27:41;;;;;;;6.40;5.80;;;20.90;96.80;;;;;;5059568;28;20604;-74
2021/08/06 11:30:14;;;;;;;6.03;5.22;;;20.80;96.80;;;;;;5069026;28;20033;-73
2021/08/06 11:32:54;;;;;;;6.70;5.95;;;20.90;97.00;;;;;;5083456;28;20040;-74
2021/08/06 11:35:23;;;;;;;6.68;5.47;;;21.10;97.30;;;;;;5079258;28;20068;-73
2021/08/06 11:37:54;;;;;;;7.25;5.90;;;21.10;96.60;;;;;;5073055;28;20119;-74
2021/08/06 11:40:26;;;;;;;7.82;5.88;;;21.20;96.20;;;;;;5078678;28;20094;-73
2021/08/06 11:42:52;;;;;;;6.07;5.47;;;21.10;96.10;;;;;;5080551;28;20553;-73
2021/08/06 11:45:26;;;;;;;8.48;6.63;;;21.00;96.20;;;;;;5075824;28;20044;-74
2021/08/06 11:47:58;;;;;;;6.32;5.63;;;21.00;96.40;;;;;;5084603;28;20732;-73
2021/08/06 11:50:47;;;;;;;7.53;6.30;;;20.90;96.40;;;;;;5082261;28;20038;-74
2021/08/06 11:53:23;;;;;;;5.85;5.25;;;21.00;96.50;;;;;;5081789;28;20032;-74
2021/08/06 11:55:55;;;;;;;7.53;5.63;;;21.10;95.80;;;;;;5082211;28;20131;-74
2021/08/06 11:58:35;;;;;;;6.75;4.55;;;21.30;95.10;;;;;;5065292;28;20048;-73
2021/08/06 12:01:03;;;;;;;5.40;4.45;;;21.40;94.80;;;;;;5072080;28;20036;-75
2021/08/06 12:03:29;;;;;;;5.95;4.35;;;21.40;94.10;;;;;;5078932;28;20369;-77
2021/08/06 12:06:02;;;;;;;6.25;4.60;;;21.40;93.80;;;;;;5077454;28;20040;-75
2021/08/06 12:08:32;;;;;;;5.97;4.53;;;21.40;94.20;;;;;;5075860;28;20040;-76
2021/08/06 12:11:18;;;;;;;7.75;4.90;;;21.60;94.40;;;;;;5079900;28;20504;-76
2021/08/06 12:13:49;;;;;;;12.98;8.57;;;21.80;93.30;;;;;;5075607;28;20029;-76
2021/08/06 12:16:28;;;;;;;13.73;10.15;;;21.80;92.70;;;;;;5076402;28;20056;-75
2021/08/06 12:19:02;;;;;;;7.35;5.70;;;21.70;92.70;;;;;;5071725;28;20040;-77
2021/08/06 12:21:34;;;;;;;7.07;4.65;;;21.80;92.30;;;;;;5079980;28;20481;-76
2021/08/06 12:23:59;;;;;;;6.10;4.20;;;21.80;92.40;;;;;;5078557;28;20033;-76
2021/08/06 12:26:34;;;;;;;6.10;4.50;;;21.80;92.40;;;;;;5070919;28;20057;-73
2021/08/06 12:29:11;;;;;;;5.88;5.18;;;21.60;91.80;;;;;;5079001;28;20119;-76
2021/08/06 12:31:57;;;;;;;9.57;6.00;;;21.40;92.20;;;;;;5072580;28;20084;-77
2021/08/06 12:34:24;;;;;;;8.65;6.93;;;21.00;93.80;;;;;;5077424;28;20047;-78
2021/08/06 12:36:55;;;;;;;12.27;8.40;;;20.70;95.30;;;;;;5057807;28;20376;-75
2021/08/06 12:39:22;;;;;;;9.38;8.15;;;20.50;96.60;;;;;;5073391;28;20032;-76
2021/08/06 12:41:50;;;;;;;9.18;8.27;;;20.40;97.50;;;;;;5064605;28;20032;-76
2021/08/06 12:44:28;;;;;;;9.02;7.93;;;20.50;98.10;;;;;;5075918;28;20032;-76